sensor_id;sensor_type;location;lat;lon;timestamp;P1;durP1;ratioP1;P2;durP2;ratioP2
23432;SDS011;41331;45.412;10.992;2023-02-20T00:01:05;168.20;;;78.07;;
23432;SDS011;41331;45.412;10.992;2023-02-20T00:03:35;171.90;;;80.97;;
23432;SDS011;41331;45.412;10.992;2023-02-20T00:06:03;168.35;;;78.97;;
23432;SDS011;41331;45.412;10.992;2023-02-20T00:08:30;179.48;;;79.32;;
23432;SDS011;41331;45.412;10.992;2023-02-20T00:10:58;176.60;;;80.90;;
23432;SDS011;41331;45.412;10.992;2023-02-20T00:13:25;174.90;;;79.95;;
23432;SDS011;41331;45.412;10.992;2023-02-20T00:15:53;170.73;;;80.22;;
23432;SDS011;41331;45.412;10.992;2023-02-20T00:18:21;167.80;;;77.07;;
23432;SDS011;41331;45.412;10.992;2023-02-20T00:20:48;169.30;;;78.75;;
23432;SDS011;41331;45.412;10.992;2023-02-20T00:23:15;173.38;;;80.50;;
23432;SDS011;41331;45.412;10.992;2023-02-20T00:25:43;176.93;;;79.93;;
23432;SDS011;41331;45.412;10.992;2023-02-20T00:28:10;172.40;;;80.18;;
23432;SDS011;41331;45.412;10.992;2023-02-20T00:30:38;171.73;;;79.82;;
23432;SDS011;41331;45.412;10.992;2023-02-20T00:33:05;177.52;;;80.25;;
23432;SDS011;41331;45.412;10.992;2023-02-20T00:35:33;176.63;;;80.53;;
23432;SDS011;41331;45.412;10.992;2023-02-20T00:38:00;178.10;;;80.50;;
23432;SDS011;41331;45.412;10.992;2023-02-20T00:40:28;172.90;;;81.97;;
23432;SDS011;41331;45.412;10.992;2023-02-20T00:42:56;172.05;;;78.95;;
23432;SDS011;41331;45.412;10.992;2023-02-20T00:45:23;165.02;;;80.45;;
23432;SDS011;41331;45.412;10.992;2023-02-20T00:47:50;168.68;;;80.65;;
23432;SDS011;41331;45.412;10.992;2023-02-20T00:50:18;173.90;;;82.18;;
23432;SDS011;41331;45.412;10.992;2023-02-20T00:52:45;170.70;;;81.15;;
23432;SDS011;41331;45.412;10.992;2023-02-20T00:55:13;171.75;;;79.20;;
23432;SDS011;41331;45.412;10.992;2023-02-20T00:57:40;165.50;;;79.00;;
23432;SDS011;41331;45.412;10.992;2023-02-20T01:00:15;177.68;;;83.05;;
23432;SDS011;41331;45.412;10.992;2023-02-20T01:02:47;172.38;;;83.15;;
23432;SDS011;41331;45.412;10.992;2023-02-20T01:05:14;177.95;;;84.15;;
23432;SDS011;41331;45.412;10.992;2023-02-20T01:07:42;173.48;;;84.95;;
23432;SDS011;41331;45.412;10.992;2023-02-20T01:10:10;168.57;;;85.30;;
23432;SDS011;41331;45.412;10.992;2023-02-20T01:12:38;172.27;;;81.32;;
23432;SDS011;41331;45.412;10.992;2023-02-20T01:15:07;166.85;;;81.78;;
23432;SDS011;41331;45.412;10.992;2023-02-20T01:17:35;169.63;;;83.88;;
23432;SDS011;41331;45.412;10.992;2023-02-20T01:20:02;161.55;;;71.90;;
23432;SDS011;41331;45.412;10.992;2023-02-20T01:22:31;158.07;;;72.03;;
23432;SDS011;41331;45.412;10.992;2023-02-20T01:24:59;163.27;;;71.60;;
23432;SDS011;41331;45.412;10.992;2023-02-20T01:27:29;158.75;;;69.20;;
23432;SDS011;41331;45.412;10.992;2023-02-20T01:29:58;178.95;;;84.50;;
23432;SDS011;41331;45.412;10.992;2023-02-20T01:32:26;177.30;;;82.75;;
23432;SDS011;41331;45.412;10.992;2023-02-20T01:34:53;166.13;;;73.90;;
23432;SDS011;41331;45.412;10.992;2023-02-20T01:37:21;170.77;;;85.35;;
23432;SDS011;41331;45.412;10.992;2023-02-20T01:39:48;180.75;;;86.75;;
23432;SDS011;41331;45.412;10.992;2023-02-20T01:42:17;157.32;;;67.75;;
23432;SDS011;41331;45.412;10.992;2023-02-20T01:44:54;161.25;;;67.53;;
23432;SDS011;41331;45.412;10.992;2023-02-20T01:47:22;162.77;;;70.25;;
23432;SDS011;41331;45.412;10.992;2023-02-20T01:52:28;157.02;;;65.43;;
23432;SDS011;41331;45.412;10.992;2023-02-20T01:54:58;159.30;;;71.03;;
23432;SDS011;41331;45.412;10.992;2023-02-20T01:57:40;149.82;;;66.18;;
23432;SDS011;41331;45.412;10.992;2023-02-20T02:00:15;159.63;;;68.82;;
23432;SDS011;41331;45.412;10.992;2023-02-20T02:02:50;149.98;;;62.10;;
23432;SDS011;41331;45.412;10.992;2023-02-20T02:05:26;163.02;;;65.65;;
23432;SDS011;41331;45.412;10.992;2023-02-20T02:07:55;160.52;;;66.47;;
23432;SDS011;41331;45.412;10.992;2023-02-20T02:10:25;157.43;;;66.78;;
23432;SDS011;41331;45.412;10.992;2023-02-20T02:12:57;157.85;;;67.25;;
23432;SDS011;41331;45.412;10.992;2023-02-20T02:15:25;156.15;;;66.25;;
23432;SDS011;41331;45.412;10.992;2023-02-20T02:46:49;156.40;;;65.22;;
23432;SDS011;41331;45.412;10.992;2023-02-20T02:49:40;165.25;;;80.85;;
23432;SDS011;41331;45.412;10.992;2023-02-20T02:52:20;161.88;;;70.43;;
23432;SDS011;41331;45.412;10.992;2023-02-20T02:55:05;166.57;;;81.68;;
23432;SDS011;41331;45.412;10.992;2023-02-20T02:57:33;160.38;;;70.80;;
23432;SDS011;41331;45.412;10.992;2023-02-20T03:00:05;160.38;;;67.32;;
23432;SDS011;41331;45.412;10.992;2023-02-20T03:11:07;165.35;;;71.50;;
23432;SDS011;41331;45.412;10.992;2023-02-20T03:13:51;157.57;;;69.93;;
23432;SDS011;41331;45.412;10.992;2023-02-20T03:16:55;153.45;;;69.82;;
23432;SDS011;41331;45.412;10.992;2023-02-20T03:19:24;155.50;;;70.45;;
23432;SDS011;41331;45.412;10.992;2023-02-20T03:21:57;163.32;;;68.72;;
23432;SDS011;41331;45.412;10.992;2023-02-20T03:24:28;154.63;;;66.45;;
23432;SDS011;41331;45.412;10.992;2023-02-20T03:27:35;157.85;;;66.70;;
23432;SDS011;41331;45.412;10.992;2023-02-20T03:36:05;148.45;;;66.30;;
23432;SDS011;41331;45.412;10.992;2023-02-20T03:38:56;162.13;;;69.60;;
23432;SDS011;41331;45.412;10.992;2023-02-20T03:41:47;161.05;;;68.90;;
23432;SDS011;41331;45.412;10.992;2023-02-20T03:47:08;142.63;;;65.97;;
23432;SDS011;41331;45.412;10.992;2023-02-20T03:52:12;151.70;;;66.05;;
23432;SDS011;41331;45.412;10.992;2023-02-20T03:54:39;150.98;;;66.80;;
23432;SDS011;41331;45.412;10.992;2023-02-20T03:57:20;155.77;;;70.30;;
23432;SDS011;41331;45.412;10.992;2023-02-20T04:00:02;157.05;;;69.78;;
23432;SDS011;41331;45.412;10.992;2023-02-20T04:02:41;172.70;;;81.22;;
23432;SDS011;41331;45.412;10.992;2023-02-20T04:05:13;152.90;;;65.80;;
23432;SDS011;41331;45.412;10.992;2023-02-20T04:10:21;148.23;;;67.40;;
23432;SDS011;41331;45.412;10.992;2023-02-20T04:12:52;146.48;;;65.57;;
23432;SDS011;41331;45.412;10.992;2023-02-20T04:15:22;143.10;;;65.68;;
23432;SDS011;41331;45.412;10.992;2023-02-20T04:17:54;140.35;;;65.43;;
23432;SDS011;41331;45.412;10.992;2023-02-20T04:20:26;153.05;;;67.68;;
23432;SDS011;41331;45.412;10.992;2023-02-20T04:23:07;147.10;;;64.57;;
23432;SDS011;41331;45.412;10.992;2023-02-20T04:25:44;142.27;;;62.50;;
23432;SDS011;41331;45.412;10.992;2023-02-20T04:28:17;146.70;;;67.43;;
23432;SDS011;41331;45.412;10.992;2023-02-20T04:30:55;156.70;;;67.15;;
23432;SDS011;41331;45.412;10.992;2023-02-20T04:33:25;151.27;;;66.45;;
23432;SDS011;41331;45.412;10.992;2023-02-20T04:35:58;146.88;;;67.00;;
23432;SDS011;41331;45.412;10.992;2023-02-20T04:38:26;144.38;;;64.50;;
23432;SDS011;41331;45.412;10.992;2023-02-20T04:40:54;155.07;;;67.93;;
23432;SDS011;41331;45.412;10.992;2023-02-20T04:43:22;151.13;;;64.13;;
23432;SDS011;41331;45.412;10.992;2023-02-20T04:45:50;149.68;;;65.93;;
23432;SDS011;41331;45.412;10.992;2023-02-20T04:48:18;151.98;;;67.85;;
23432;SDS011;41331;45.412;10.992;2023-02-20T04:50:46;163.82;;;78.82;;
23432;SDS011;41331;45.412;10.992;2023-02-20T04:53:15;152.48;;;69.18;;
23432;SDS011;41331;45.412;10.992;2023-02-20T04:55:44;146.88;;;67.22;;
23432;SDS011;41331;45.412;10.992;2023-02-20T04:58:15;154.75;;;70.03;;
23432;SDS011;41331;45.412;10.992;2023-02-20T05:00:51;141.88;;;65.55;;
23432;SDS011;41331;45.412;10.992;2023-02-20T05:03:19;157.73;;;75.50;;
23432;SDS011;41331;45.412;10.992;2023-02-20T05:05:46;155.57;;;75.45;;
23432;SDS011;41331;45.412;10.992;2023-02-20T05:08:17;154.27;;;75.07;;
23432;SDS011;41331;45.412;10.992;2023-02-20T05:10:45;158.18;;;77.93;;
23432;SDS011;41331;45.412;10.992;2023-02-20T05:13:12;147.93;;;66.60;;
23432;SDS011;41331;45.412;10.992;2023-02-20T05:15:40;134.35;;;61.00;;
23432;SDS011;41331;45.412;10.992;2023-02-20T05:18:07;144.68;;;65.53;;
23432;SDS011;41331;45.412;10.992;2023-02-20T05:20:34;149.10;;;68.75;;
23432;SDS011;41331;45.412;10.992;2023-02-20T05:23:20;140.25;;;61.15;;
23432;SDS011;41331;45.412;10.992;2023-02-20T05:25:48;158.27;;;72.65;;
23432;SDS011;41331;45.412;10.992;2023-02-20T05:28:16;153.77;;;64.18;;
23432;SDS011;41331;45.412;10.992;2023-02-20T05:30:43;141.95;;;61.65;;
23432;SDS011;41331;45.412;10.992;2023-02-20T05:33:11;159.20;;;77.20;;
23432;SDS011;41331;45.412;10.992;2023-02-20T05:35:38;153.38;;;67.22;;
23432;SDS011;41331;45.412;10.992;2023-02-20T05:38:06;158.63;;;76.68;;
23432;SDS011;41331;45.412;10.992;2023-02-20T05:40:34;148.80;;;67.85;;
23432;SDS011;41331;45.412;10.992;2023-02-20T05:43:01;146.80;;;65.35;;
23432;SDS011;41331;45.412;10.992;2023-02-20T05:45:28;163.13;;;67.88;;
23432;SDS011;41331;45.412;10.992;2023-02-20T05:47:56;153.77;;;65.00;;
23432;SDS011;41331;45.412;10.992;2023-02-20T05:50:23;151.18;;;66.28;;
23432;SDS011;41331;45.412;10.992;2023-02-20T05:52:50;148.43;;;65.63;;
23432;SDS011;41331;45.412;10.992;2023-02-20T05:55:17;148.63;;;63.75;;
23432;SDS011;41331;45.412;10.992;2023-02-20T05:57:45;145.85;;;64.97;;
23432;SDS011;41331;45.412;10.992;2023-02-20T06:00:12;144.82;;;65.18;;
23432;SDS011;41331;45.412;10.992;2023-02-20T06:02:40;151.50;;;64.70;;
23432;SDS011;41331;45.412;10.992;2023-02-20T06:05:07;144.57;;;61.42;;
23432;SDS011;41331;45.412;10.992;2023-02-20T06:07:35;161.35;;;72.95;;
23432;SDS011;41331;45.412;10.992;2023-02-20T06:10:05;146.00;;;63.33;;
23432;SDS011;41331;45.412;10.992;2023-02-20T06:12:32;153.07;;;76.82;;
23432;SDS011;41331;45.412;10.992;2023-02-20T06:15:00;172.13;;;82.47;;
23432;SDS011;41331;45.412;10.992;2023-02-20T06:17:27;150.90;;;65.93;;
23432;SDS011;41331;45.412;10.992;2023-02-20T06:19:56;154.07;;;66.20;;
23432;SDS011;41331;45.412;10.992;2023-02-20T06:22:23;147.98;;;64.60;;
23432;SDS011;41331;45.412;10.992;2023-02-20T06:24:51;155.70;;;62.83;;
23432;SDS011;41331;45.412;10.992;2023-02-20T06:27:18;152.52;;;72.80;;
23432;SDS011;41331;45.412;10.992;2023-02-20T06:29:46;143.75;;;64.30;;
23432;SDS011;41331;45.412;10.992;2023-02-20T06:32:14;152.20;;;66.32;;
23432;SDS011;41331;45.412;10.992;2023-02-20T06:34:43;148.70;;;64.90;;
23432;SDS011;41331;45.412;10.992;2023-02-20T06:37:14;138.10;;;62.17;;
23432;SDS011;41331;45.412;10.992;2023-02-20T06:39:41;150.63;;;63.70;;
23432;SDS011;41331;45.412;10.992;2023-02-20T06:42:11;145.07;;;65.00;;
23432;SDS011;41331;45.412;10.992;2023-02-20T06:44:39;152.85;;;72.65;;
23432;SDS011;41331;45.412;10.992;2023-02-20T06:47:06;133.95;;;62.15;;
23432;SDS011;41331;45.412;10.992;2023-02-20T06:49:35;152.10;;;77.53;;
23432;SDS011;41331;45.412;10.992;2023-02-20T06:52:03;162.10;;;78.97;;
23432;SDS011;41331;45.412;10.992;2023-02-20T06:54:32;137.18;;;61.85;;
23432;SDS011;41331;45.412;10.992;2023-02-20T06:57:00;136.82;;;60.03;;
23432;SDS011;41331;45.412;10.992;2023-02-20T06:59:28;135.27;;;61.67;;
23432;SDS011;41331;45.412;10.992;2023-02-20T07:01:55;147.95;;;70.35;;
23432;SDS011;41331;45.412;10.992;2023-02-20T07:04:26;154.93;;;76.18;;
23432;SDS011;41331;45.412;10.992;2023-02-20T07:06:54;141.80;;;72.47;;
23432;SDS011;41331;45.412;10.992;2023-02-20T07:09:22;137.80;;;58.72;;
23432;SDS011;41331;45.412;10.992;2023-02-20T07:11:51;124.88;;;58.80;;
23432;SDS011;41331;45.412;10.992;2023-02-20T07:14:20;136.50;;;69.40;;
23432;SDS011;41331;45.412;10.992;2023-02-20T07:16:48;128.98;;;66.43;;
23432;SDS011;41331;45.412;10.992;2023-02-20T07:19:15;122.75;;;63.72;;
23432;SDS011;41331;45.412;10.992;2023-02-20T07:21:44;133.48;;;64.30;;
23432;SDS011;41331;45.412;10.992;2023-02-20T07:24:13;126.80;;;64.88;;
23432;SDS011;41331;45.412;10.992;2023-02-20T07:26:40;130.05;;;55.78;;
23432;SDS011;41331;45.412;10.992;2023-02-20T07:29:08;121.75;;;56.60;;
23432;SDS011;41331;45.412;10.992;2023-02-20T07:31:35;128.95;;;58.33;;
23432;SDS011;41331;45.412;10.992;2023-02-20T07:34:03;119.53;;;55.30;;
23432;SDS011;41331;45.412;10.992;2023-02-20T07:36:35;136.40;;;69.20;;
23432;SDS011;41331;45.412;10.992;2023-02-20T07:39:03;128.85;;;63.55;;
23432;SDS011;41331;45.412;10.992;2023-02-20T07:41:34;122.25;;;58.83;;
23432;SDS011;41331;45.412;10.992;2023-02-20T07:44:04;121.38;;;54.28;;
23432;SDS011;41331;45.412;10.992;2023-02-20T07:46:35;118.82;;;53.20;;
23432;SDS011;41331;45.412;10.992;2023-02-20T07:49:03;117.25;;;53.22;;
23432;SDS011;41331;45.412;10.992;2023-02-20T07:51:31;118.65;;;50.40;;
23432;SDS011;41331;45.412;10.992;2023-02-20T07:53:59;105.47;;;52.17;;
23432;SDS011;41331;45.412;10.992;2023-02-20T07:56:27;107.35;;;50.75;;
23432;SDS011;41331;45.412;10.992;2023-02-20T07:58:55;116.60;;;51.72;;
23432;SDS011;41331;45.412;10.992;2023-02-20T08:01:23;121.25;;;57.83;;
23432;SDS011;41331;45.412;10.992;2023-02-20T08:47:35;104.03;;;49.05;;
23432;SDS011;41331;45.412;10.992;2023-02-20T08:50:03;97.22;;;48.05;;
23432;SDS011;41331;45.412;10.992;2023-02-20T08:52:33;93.35;;;45.15;;
23432;SDS011;41331;45.412;10.992;2023-02-20T08:55:00;96.22;;;45.67;;
23432;SDS011;41331;45.412;10.992;2023-02-20T08:57:28;94.35;;;45.83;;
23432;SDS011;41331;45.412;10.992;2023-02-20T08:59:55;100.82;;;44.65;;
23432;SDS011;41331;45.412;10.992;2023-02-20T09:02:23;93.15;;;44.45;;
23432;SDS011;41331;45.412;10.992;2023-02-20T09:04:55;92.05;;;43.65;;
23432;SDS011;41331;45.412;10.992;2023-02-20T09:07:23;90.78;;;43.15;;
23432;SDS011;41331;45.412;10.992;2023-02-20T09:09:51;87.85;;;44.50;;
23432;SDS011;41331;45.412;10.992;2023-02-20T09:12:18;94.60;;;44.22;;
23432;SDS011;41331;45.412;10.992;2023-02-20T09:14:46;94.68;;;45.22;;
23432;SDS011;41331;45.412;10.992;2023-02-20T09:17:16;88.55;;;42.20;;
23432;SDS011;41331;45.412;10.992;2023-02-20T09:19:43;91.15;;;44.38;;
23432;SDS011;41331;45.412;10.992;2023-02-20T09:22:11;93.45;;;45.00;;
23432;SDS011;41331;45.412;10.992;2023-02-20T09:24:38;114.22;;;57.08;;
23432;SDS011;41331;45.412;10.992;2023-02-20T09:27:05;101.30;;;49.63;;
23432;SDS011;41331;45.412;10.992;2023-02-20T09:29:33;101.88;;;47.72;;
23432;SDS011;41331;45.412;10.992;2023-02-20T09:32:02;104.78;;;51.28;;
23432;SDS011;41331;45.412;10.992;2023-02-20T09:34:30;97.85;;;49.88;;
23432;SDS011;41331;45.412;10.992;2023-02-20T09:36:57;105.90;;;53.38;;
23432;SDS011;41331;45.412;10.992;2023-02-20T09:39:25;106.07;;;53.05;;
23432;SDS011;41331;45.412;10.992;2023-02-20T09:50:06;108.65;;;52.60;;
23432;SDS011;41331;45.412;10.992;2023-02-20T09:52:39;108.65;;;52.42;;
23432;SDS011;41331;45.412;10.992;2023-02-20T09:55:12;110.03;;;54.47;;
23432;SDS011;41331;45.412;10.992;2023-02-20T09:57:48;107.38;;;51.38;;
23432;SDS011;41331;45.412;10.992;2023-02-20T10:00:32;113.47;;;55.47;;
23432;SDS011;41331;45.412;10.992;2023-02-20T10:03:14;113.07;;;55.03;;
23432;SDS011;41331;45.412;10.992;2023-02-20T10:05:43;111.55;;;55.47;;
23432;SDS011;41331;45.412;10.992;2023-02-20T10:08:17;109.63;;;55.85;;
23432;SDS011;41331;45.412;10.992;2023-02-20T10:10:50;116.82;;;57.42;;
23432;SDS011;41331;45.412;10.992;2023-02-20T10:19:01;105.43;;;55.47;;
23432;SDS011;41331;45.412;10.992;2023-02-20T10:21:48;107.47;;;57.53;;
23432;SDS011;41331;45.412;10.992;2023-02-20T10:24:54;100.30;;;54.03;;
23432;SDS011;41331;45.412;10.992;2023-02-20T10:27:37;104.90;;;52.80;;
23432;SDS011;41331;45.412;10.992;2023-02-20T10:39:08;72.50;;;39.42;;
23432;SDS011;41331;45.412;10.992;2023-02-20T10:46:58;63.88;;;36.55;;
23432;SDS011;41331;45.412;10.992;2023-02-20T10:52:08;67.88;;;37.67;;
23432;SDS011;41331;45.412;10.992;2023-02-20T10:55:02;60.25;;;34.22;;
23432;SDS011;41331;45.412;10.992;2023-02-20T10:57:46;52.20;;;30.17;;
23432;SDS011;41331;45.412;10.992;2023-02-20T11:03:14;63.35;;;33.80;;
23432;SDS011;41331;45.412;10.992;2023-02-20T11:05:55;61.17;;;34.35;;
23432;SDS011;41331;45.412;10.992;2023-02-20T11:08:27;66.85;;;35.10;;
23432;SDS011;41331;45.412;10.992;2023-02-20T11:10:55;58.42;;;33.28;;
23432;SDS011;41331;45.412;10.992;2023-02-20T11:13:26;65.30;;;34.45;;
23432;SDS011;41331;45.412;10.992;2023-02-20T11:15:54;66.75;;;35.97;;
23432;SDS011;41331;45.412;10.992;2023-02-20T11:18:24;70.47;;;38.47;;
23432;SDS011;41331;45.412;10.992;2023-02-20T11:20:56;72.70;;;38.95;;
23432;SDS011;41331;45.412;10.992;2023-02-20T11:23:33;68.30;;;37.42;;
23432;SDS011;41331;45.412;10.992;2023-02-20T11:29:04;71.28;;;35.88;;
23432;SDS011;41331;45.412;10.992;2023-02-20T11:31:38;71.82;;;36.63;;
23432;SDS011;41331;45.412;10.992;2023-02-20T11:34:13;69.13;;;35.35;;
23432;SDS011;41331;45.412;10.992;2023-02-20T11:36:46;74.13;;;37.85;;
23432;SDS011;41331;45.412;10.992;2023-02-20T11:39:24;69.13;;;37.75;;
23432;SDS011;41331;45.412;10.992;2023-02-20T11:44:44;73.88;;;36.15;;
23432;SDS011;41331;45.412;10.992;2023-02-20T11:49:47;68.03;;;36.97;;
23432;SDS011;41331;45.412;10.992;2023-02-20T11:52:16;72.95;;;38.45;;
23432;SDS011;41331;45.412;10.992;2023-02-20T11:54:46;71.00;;;36.67;;
23432;SDS011;41331;45.412;10.992;2023-02-20T11:57:34;69.35;;;36.88;;
23432;SDS011;41331;45.412;10.992;2023-02-20T12:10:33;74.22;;;38.63;;
23432;SDS011;41331;45.412;10.992;2023-02-20T12:13:12;72.05;;;38.75;;
23432;SDS011;41331;45.412;10.992;2023-02-20T12:15:42;77.88;;;38.92;;
23432;SDS011;41331;45.412;10.992;2023-02-20T12:18:59;73.40;;;37.60;;
23432;SDS011;41331;45.412;10.992;2023-02-20T12:21:12;69.72;;;33.15;;
23432;SDS011;41331;45.412;10.992;2023-02-20T12:23:48;62.90;;;32.40;;
23432;SDS011;41331;45.412;10.992;2023-02-20T12:26:21;64.85;;;31.77;;
23432;SDS011;41331;45.412;10.992;2023-02-20T12:28:58;71.43;;;32.00;;
23432;SDS011;41331;45.412;10.992;2023-02-20T12:34:19;62.45;;;33.95;;
23432;SDS011;41331;45.412;10.992;2023-02-20T12:36:59;60.88;;;33.35;;
23432;SDS011;41331;45.412;10.992;2023-02-20T12:45:17;67.47;;;37.90;;
23432;SDS011;41331;45.412;10.992;2023-02-20T12:50:59;62.67;;;37.67;;
23432;SDS011;41331;45.412;10.992;2023-02-20T12:53:43;66.03;;;36.45;;
23432;SDS011;41331;45.412;10.992;2023-02-20T12:59:34;63.85;;;36.20;;
23432;SDS011;41331;45.412;10.992;2023-02-20T13:02:26;62.90;;;34.95;;
23432;SDS011;41331;45.412;10.992;2023-02-20T13:05:08;63.97;;;35.67;;
23432;SDS011;41331;45.412;10.992;2023-02-20T13:07:42;68.40;;;36.83;;
23432;SDS011;41331;45.412;10.992;2023-02-20T13:10:21;63.15;;;36.53;;
23432;SDS011;41331;45.412;10.992;2023-02-20T13:12:49;67.13;;;35.45;;
23432;SDS011;41331;45.412;10.992;2023-02-20T13:18:18;61.00;;;34.35;;
23432;SDS011;41331;45.412;10.992;2023-02-20T13:20:52;63.92;;;34.15;;
23432;SDS011;41331;45.412;10.992;2023-02-20T13:25:51;68.07;;;34.97;;
23432;SDS011;41331;45.412;10.992;2023-02-20T13:33:46;65.88;;;35.95;;
23432;SDS011;41331;45.412;10.992;2023-02-20T13:36:15;71.60;;;37.90;;
23432;SDS011;41331;45.412;10.992;2023-02-20T13:39:24;70.75;;;39.17;;
23432;SDS011;41331;45.412;10.992;2023-02-20T13:49:53;76.68;;;41.20;;
23432;SDS011;41331;45.412;10.992;2023-02-20T13:55:10;71.45;;;35.58;;
23432;SDS011;41331;45.412;10.992;2023-02-20T13:57:51;79.65;;;43.90;;
23432;SDS011;41331;45.412;10.992;2023-02-20T14:00:35;79.97;;;41.67;;
23432;SDS011;41331;45.412;10.992;2023-02-20T14:03:13;81.15;;;45.30;;
23432;SDS011;41331;45.412;10.992;2023-02-20T14:08:35;91.50;;;47.15;;
23432;SDS011;41331;45.412;10.992;2023-02-20T14:11:05;97.65;;;48.85;;
23432;SDS011;41331;45.412;10.992;2023-02-20T14:13:50;92.28;;;51.85;;
23432;SDS011;41331;45.412;10.992;2023-02-20T14:16:22;91.65;;;43.47;;
23432;SDS011;41331;45.412;10.992;2023-02-20T14:18:58;89.20;;;45.08;;
23432;SDS011;41331;45.412;10.992;2023-02-20T14:21:26;83.43;;;44.95;;
23432;SDS011;41331;45.412;10.992;2023-02-20T14:23:56;88.85;;;44.90;;
23432;SDS011;41331;45.412;10.992;2023-02-20T14:26:25;85.53;;;43.97;;
23432;SDS011;41331;45.412;10.992;2023-02-20T14:28:57;95.55;;;45.03;;
23432;SDS011;41331;45.412;10.992;2023-02-20T14:31:26;103.53;;;53.60;;
23432;SDS011;41331;45.412;10.992;2023-02-20T14:34:14;98.13;;;53.70;;
23432;SDS011;41331;45.412;10.992;2023-02-20T14:42:27;95.85;;;51.10;;
23432;SDS011;41331;45.412;10.992;2023-02-20T14:45:02;96.32;;;47.17;;
23432;SDS011;41331;45.412;10.992;2023-02-20T14:47:32;88.57;;;46.55;;
23432;SDS011;41331;45.412;10.992;2023-02-20T14:50:13;91.85;;;44.25;;
23432;SDS011;41331;45.412;10.992;2023-02-20T14:52:42;87.18;;;43.45;;
23432;SDS011;41331;45.412;10.992;2023-02-20T14:55:14;82.28;;;41.92;;
23432;SDS011;41331;45.412;10.992;2023-02-20T14:57:44;92.80;;;43.33;;
23432;SDS011;41331;45.412;10.992;2023-02-20T15:00:22;103.97;;;54.03;;
23432;SDS011;41331;45.412;10.992;2023-02-20T15:02:54;91.80;;;48.95;;
23432;SDS011;41331;45.412;10.992;2023-02-20T15:05:30;98.18;;;52.03;;
23432;SDS011;41331;45.412;10.992;2023-02-20T15:08:01;99.30;;;49.90;;
23432;SDS011;41331;45.412;10.992;2023-02-20T15:10:44;83.57;;;41.47;;
23432;SDS011;41331;45.412;10.992;2023-02-20T15:13:21;89.32;;;47.45;;
23432;SDS011;41331;45.412;10.992;2023-02-20T15:15:53;93.50;;;46.35;;
23432;SDS011;41331;45.412;10.992;2023-02-20T15:21:04;82.10;;;39.53;;
23432;SDS011;41331;45.412;10.992;2023-02-20T15:23:33;83.57;;;40.67;;
23432;SDS011;41331;45.412;10.992;2023-02-20T15:26:48;82.45;;;40.40;;
23432;SDS011;41331;45.412;10.992;2023-02-20T15:31:45;86.72;;;45.70;;
23432;SDS011;41331;45.412;10.992;2023-02-20T15:34:21;86.40;;;40.95;;
23432;SDS011;41331;45.412;10.992;2023-02-20T15:36:57;82.82;;;40.55;;
23432;SDS011;41331;45.412;10.992;2023-02-20T15:39:25;85.45;;;40.90;;
23432;SDS011;41331;45.412;10.992;2023-02-20T15:41:52;78.32;;;40.50;;
23432;SDS011;41331;45.412;10.992;2023-02-20T15:44:21;83.85;;;40.20;;
23432;SDS011;41331;45.412;10.992;2023-02-20T15:46:48;86.57;;;39.40;;
23432;SDS011;41331;45.412;10.992;2023-02-20T15:49:15;87.32;;;40.13;;
23432;SDS011;41331;45.412;10.992;2023-02-20T15:51:47;77.65;;;39.00;;
23432;SDS011;41331;45.412;10.992;2023-02-20T15:54:20;79.18;;;36.67;;
23432;SDS011;41331;45.412;10.992;2023-02-20T15:56:47;81.95;;;37.17;;
23432;SDS011;41331;45.412;10.992;2023-02-20T15:59:17;75.13;;;37.35;;
23432;SDS011;41331;45.412;10.992;2023-02-20T16:01:45;86.50;;;37.63;;
23432;SDS011;41331;45.412;10.992;2023-02-20T16:04:16;77.70;;;38.53;;
23432;SDS011;41331;45.412;10.992;2023-02-20T16:06:44;80.10;;;36.40;;
23432;SDS011;41331;45.412;10.992;2023-02-20T16:09:30;80.85;;;37.70;;
23432;SDS011;41331;45.412;10.992;2023-02-20T16:11:58;79.38;;;37.20;;
23432;SDS011;41331;45.412;10.992;2023-02-20T16:14:26;78.70;;;37.75;;
23432;SDS011;41331;45.412;10.992;2023-02-20T16:16:53;77.47;;;43.67;;
23432;SDS011;41331;45.412;10.992;2023-02-20T16:19:22;83.85;;;39.75;;
23432;SDS011;41331;45.412;10.992;2023-02-20T16:22:07;82.68;;;38.75;;
23432;SDS011;41331;45.412;10.992;2023-02-20T16:24:35;78.00;;;39.08;;
23432;SDS011;41331;45.412;10.992;2023-02-20T16:27:05;80.97;;;36.78;;
23432;SDS011;41331;45.412;10.992;2023-02-20T16:29:48;83.03;;;40.42;;
23432;SDS011;41331;45.412;10.992;2023-02-20T16:32:18;92.63;;;46.40;;
23432;SDS011;41331;45.412;10.992;2023-02-20T16:34:53;86.68;;;47.17;;
23432;SDS011;41331;45.412;10.992;2023-02-20T16:37:23;86.00;;;40.22;;
23432;SDS011;41331;45.412;10.992;2023-02-20T16:39:51;78.78;;;38.70;;
23432;SDS011;41331;45.412;10.992;2023-02-20T16:42:20;85.00;;;39.65;;
23432;SDS011;41331;45.412;10.992;2023-02-20T16:44:48;72.18;;;36.83;;
23432;SDS011;41331;45.412;10.992;2023-02-20T16:47:18;93.15;;;46.22;;
23432;SDS011;41331;45.412;10.992;2023-02-20T16:49:47;80.15;;;37.33;;
23432;SDS011;41331;45.412;10.992;2023-02-20T16:54:49;79.18;;;37.20;;
23432;SDS011;41331;45.412;10.992;2023-02-20T16:57:17;83.03;;;37.65;;
23432;SDS011;41331;45.412;10.992;2023-02-20T16:59:47;79.80;;;36.33;;
23432;SDS011;41331;45.412;10.992;2023-02-20T17:02:19;83.88;;;36.90;;
23432;SDS011;41331;45.412;10.992;2023-02-20T17:04:49;93.68;;;38.40;;
23432;SDS011;41331;45.412;10.992;2023-02-20T17:07:17;83.70;;;39.22;;
23432;SDS011;41331;45.412;10.992;2023-02-20T17:09:47;81.13;;;37.50;;
23432;SDS011;41331;45.412;10.992;2023-02-20T17:12:17;81.75;;;39.15;;
23432;SDS011;41331;45.412;10.992;2023-02-20T17:14:45;79.57;;;37.58;;
23432;SDS011;41331;45.412;10.992;2023-02-20T17:17:13;84.90;;;38.20;;
23432;SDS011;41331;45.412;10.992;2023-02-20T17:19:44;83.45;;;37.58;;
23432;SDS011;41331;45.412;10.992;2023-02-20T17:22:12;86.93;;;38.85;;
23432;SDS011;41331;45.412;10.992;2023-02-20T17:24:40;87.68;;;38.63;;
23432;SDS011;41331;45.412;10.992;2023-02-20T17:27:09;76.72;;;36.78;;
23432;SDS011;41331;45.412;10.992;2023-02-20T17:29:38;82.88;;;37.65;;
23432;SDS011;41331;45.412;10.992;2023-02-20T17:32:08;74.40;;;35.50;;
23432;SDS011;41331;45.412;10.992;2023-02-20T17:34:36;80.35;;;37.20;;
23432;SDS011;41331;45.412;10.992;2023-02-20T17:37:04;83.18;;;37.30;;
23432;SDS011;41331;45.412;10.992;2023-02-20T17:39:35;85.13;;;36.42;;
23432;SDS011;41331;45.412;10.992;2023-02-20T17:42:03;82.70;;;37.90;;
23432;SDS011;41331;45.412;10.992;2023-02-20T17:44:31;84.93;;;38.17;;
23432;SDS011;41331;45.412;10.992;2023-02-20T17:46:59;81.95;;;38.47;;
23432;SDS011;41331;45.412;10.992;2023-02-20T17:49:27;90.93;;;36.58;;